Flight Track Log - Related Links

Times and Time Zones

All times are in EDT time to prevent confusion due to time zone crossing. See the 9Y-BGI flight status page for this flight to view local times or setup timezone preferences in your user account.

Time Position Orientation Groundspeed Altitude Reporting Facility
EDT Latitude Longitude Course Direction KTS MPH feet Rate Location/Type
Thu 01:04:00 PM 18.9536 -77.8606 North  Level FlightAware Approximate
Thu 01:05:00 PM 19.0661 -77.8473 North  Level FlightAware Approximate
Thu 01:06:00 PM 19.1786 -77.8341 North  Level FlightAware Approximate
Thu 01:07:00 PM 19.2910 -77.8208 North  Level FlightAware Approximate
Thu 01:08:00 PM 19.4035 -77.8075 North  Level FlightAware Approximate
Thu 01:09:00 PM 19.5138 -77.7961 North  Level FlightAware Approximate
Thu 01:10:00 PM 19.6266 -77.7867 North  Level FlightAware Approximate
Thu 01:11:00 PM 19.7393 -77.7754 North  Level FlightAware Approximate
Thu 01:12:00 PM 19.8518 -77.7632 North  Level FlightAware Approximate
Thu 01:13:00 PM 19.9644 -77.7509 North  Level FlightAware Approximate
Thu 01:14:00 PM 20.0770 -77.7386 North  Level FlightAware Approximate
Thu 01:15:00 PM 20.1896 -77.7262 North  Level FlightAware Approximate
Thu 01:16:00 PM 20.3021 -77.7139 North  Level FlightAware Approximate
Thu 01:17:00 PM 20.4147 -77.7015 North  Level FlightAware Approximate
Thu 01:18:00 PM 20.5273 -77.6892 North  Level FlightAware Approximate
Thu 01:19:00 PM 20.6399 -77.6768 North  Level FlightAware Approximate
Thu 01:20:00 PM 20.7524 -77.6644 North  Level FlightAware Approximate
Thu 01:21:00 PM 20.8650 -77.6519 North  Level FlightAware Approximate
Thu 01:22:00 PM 20.9776 -77.6395 North  Level FlightAware Approximate
Thu 01:23:00 PM 21.0901 -77.6270 North  Level FlightAware Approximate
Thu 01:24:00 PM 21.2027 -77.6145 North  Level FlightAware Approximate
Thu 01:25:00 PM 21.3153 -77.6020 North  Level FlightAware Approximate
Thu 01:26:00 PM 21.4278 -77.5893 North  Level FlightAware Approximate
Thu 01:27:00 PM 21.5404 -77.5766 North  Level FlightAware Approximate
Thu 01:28:00 PM 21.6529 -77.5639 North  Level FlightAware Approximate
Thu 01:29:00 PM 21.7655 -77.5511 North  Level FlightAware Approximate
Thu 01:30:00 PM 21.8780 -77.5383 North  Level FlightAware Approximate
Thu 01:31:00 PM 21.9905 -77.5255 North  Level FlightAware Approximate
Thu 01:32:00 PM 22.1031 -77.5126 North  Level FlightAware Approximate
Thu 01:33:00 PM 22.2156 -77.4998 North  Level FlightAware Approximate
Thu 01:34:00 PM 22.3282 -77.4869 North  Level FlightAware Approximate
Thu 01:35:00 PM 22.4407 -77.4740 North  Level FlightAware Approximate
Thu 01:36:00 PM 22.5430 -77.4622 North  Level FlightAware Approximate
Thu 01:37:00 PM 22.6453 -77.4502 North  Level FlightAware Approximate
Thu 01:38:00 PM 22.7476 -77.4383 North  Level FlightAware Approximate
Thu 01:39:00 PM 22.8499 -77.4264 North  Level FlightAware Approximate
Thu 01:40:00 PM 22.9522 -77.4144 North  Level FlightAware Approximate
Thu 01:40:20 PM 22.8236 -77.3186 North 453 521 36,000  Level Miami Center
Thu 01:41:00 PM 23.0544 -77.4024 North  Level FlightAware Approximate
Thu 01:41:20 PM 22.9386 -77.3258 357° North 436 502 36,000  Level Miami Center
Thu 01:42:00 PM 23.1567 -77.3904 North  Level FlightAware Approximate
Thu 01:43:00 PM 23.2590 -77.3784 North  Level FlightAware Approximate
Thu 01:43:00 PM 23.1098 -77.3371 357° North  Level Estimated
Thu 01:44:00 PM 23.3613 -77.3664 North  Level FlightAware Approximate
Thu 01:44:20 PM 23.2958 -77.2819 357° North 414 476 35,700  Level Miami Center
Thu 01:45:00 PM 23.4636 -77.3543 North  Level FlightAware Approximate
Thu 01:45:20 PM 23.4153 -77.2483 14° North 419 482 32,600  Level Miami Center
Thu 01:46:20 PM 23.5300 -77.2578 356° North 409 471 30,000 -2,450 Descending Miami Center
Thu 01:47:20 PM 23.6367 -77.2717 353° North 403 464 27,700 -2,200 Descending Miami Center
Thu 01:48:20 PM 23.7453 -77.2833 354° North 393 452 25,600 -2,050 Descending Miami Center
Thu 01:49:20 PM 23.8497 -77.2975 353° North 381 438 23,600 -2,050 Descending Miami Center
Thu 01:50:20 PM 23.9519 -77.3114 353° North 381 438 21,500 -2,050 Descending Miami Center
Thu 01:51:20 PM 24.0564 -77.3275 352° North 376 433 19,500 -1,950 Descending Miami Center
Thu 01:52:20 PM 24.1567 -77.3417 353° North 364 419 17,600 -1,950 Descending Miami Center
Thu 01:53:20 PM 24.2550 -77.3511 355° North 364 419 15,600 -2,000 Descending Miami Center
Thu 01:54:20 PM 24.3531 -77.3631 354° North 359 413 13,600 -1,500 Descending Miami Center
Thu 01:55:20 PM 24.4472 -77.3747 354° North 346 398 12,600 -1,000 Descending Miami Center
Thu 01:57:00 PM 24.6243 -77.4167 North  Level FlightAware Approximate
Thu 02:04:00 PM 25.0333 -77.4500 318° Northwest  Level FlightAware Approximate
Thu 02:05:00 PM 25.0390 -77.4662 318° Northwest  Level Estimated
Thu 02:06:00 PM 25.0390 -77.4662 318° Northwest  Level Estimated
Thu 02:07:00 PM 25.0390 -77.4662 318° Northwest  Level Estimated
Thu 02:08:00 PM 25.0390 -77.4662 318° Northwest  Level Estimated
Thu 02:09:00 PM 25.0390 -77.4662 318° Northwest  Level Estimated
Thu 02:10:00 PM 25.0390 -77.4662 318° Northwest  Level Estimated
Thu 02:11:00 PM 25.0390 -77.4662 318° Northwest  Level Estimated
Thu 02:12:00 PM 25.0390 -77.4662 318° Northwest  Level Estimated
Thu 02:13:00 PM 25.0390 -77.4662 318° Northwest  Level Estimated

Login

Don't have an account? Register now (free) for customized features, flight alerts, and more!